< < Back
Terminal Aerodrome Forecast


Current Version              Previous Versions:   1  2  3  4  5  6  7  8  9  

Terminal Aerodrome Forecast

144
FTUS42 KILM 310500
TAFFLO
TAF
KFLO 310535Z 3106/0106 36008KT P6SM SCT250
     FM311900 28007KT P6SM SCT200
     FM312330 00000KT P6SM FEW120 SCT200=



Latest METAR

671
SAUS70 KWBC 310700 RRP
MTRFLO
METAR KFLO 310653Z AUTO 35004KT 10SM CLR 00/M11 A3032 RMK AO2 SLP266
T00001106


USA.gov is the U.S. government's official web portal to all federal, state and local government web resources and services.